Time;durP1;ratioP1;P1;durP2;ratioP2;P2;SDS_P1;SDS_P2;PMS_P1;PMS_P2;Temp;Humidity;BMP_temperature;BMP_pressure;BME280_temperature;BME280_humidity;BME280_pressure;Samples;Min_cycle;Max_cycle;Signal;HPM_P1;HPM_P2
2022/03/12 00:02:21;;;;;;;;;4.00;3.00;;;;;10.53;55.07;100745.09;5062252;28;45343;-58
2022/03/12 00:04:46;;;;;;;;;3.00;2.00;;;;;10.48;55.21;100754.78;5062318;28;45312;-58
2022/03/12 00:07:12;;;;;;;;;1.25;1.25;;;;;10.48;54.94;100756.56;5062121;28;45315;-58
2022/03/12 00:09:38;;;;;;;;;3.25;2.00;;;;;10.45;55.33;100772.34;5060409;28;47418;-58
2022/03/12 00:12:04;;;;;;;;;2.00;0.00;;;;;10.40;55.31;100769.78;5061877;28;45319;-58
2022/03/12 00:14:35;;;;;;;;;2.00;2.00;;;;;10.37;55.39;100764.56;5060723;28;45272;-57
2022/03/12 00:17:00;;;;;;;;;3.00;3.00;;;;;10.37;55.16;100785.59;5060877;28;45394;-58
2022/03/12 00:19:26;;;;;;;;;3.00;3.00;;;;;10.37;55.35;100785.59;5061622;28;45371;-57
2022/03/12 00:21:52;;;;;;;;;3.00;2.25;;;;;10.36;55.11;100784.72;5062111;28;45529;-58
2022/03/12 00:24:18;;;;;;;;;3.00;2.50;;;;;10.33;55.43;100782.09;5060514;28;45391;-58
2022/03/12 00:26:46;;;;;;;;;4.50;3.50;;;;;10.30;55.43;100791.75;5061906;28;45228;-58
2022/03/12 00:29:15;;;;;;;;;3.00;3.00;;;;;10.31;55.31;100791.72;5061382;28;46329;-58
2022/03/12 00:31:45;;;;;;;;;3.25;2.50;;;;;10.25;55.42;100795.31;5061856;28;45306;-58
2022/03/12 00:34:11;;;;;;;;;3.00;2.00;;;;;10.25;55.13;100782.19;5061724;28;45330;-58
2022/03/12 00:36:37;;;;;;;;;3.25;3.00;;;;;10.28;55.12;100789.16;5061745;28;45347;-58
2022/03/12 00:39:03;;;;;;;;;4.00;3.00;;;;;10.24;55.18;100790.09;5069747;28;45224;-58
2022/03/12 00:41:29;;;;;;;;;5.25;3.50;;;;;10.27;55.17;100786.56;5060499;28;45436;-58
2022/03/12 00:43:55;;;;;;;;;5.50;4.00;;;;;10.24;55.29;100788.31;5059938;28;45881;-58
2022/03/12 00:46:20;;;;;;;;;2.25;1.75;;;;;10.21;55.27;100787.50;5061512;28;45382;-58
2022/03/12 00:48:46;;;;;;;;;4.00;2.00;;;;;10.24;55.15;100797.97;5061434;28;45438;-58
2022/03/12 00:51:11;;;;;;;;;2.00;2.00;;;;;10.26;55.13;100796.19;5059550;28;45428;-58
2022/03/12 00:53:38;;;;;;;;;3.00;3.00;;;;;10.25;55.25;100803.19;5061447;28;45256;-58
2022/03/12 00:56:06;;;;;;;;;3.00;3.00;;;;;10.26;55.24;100806.69;5060016;28;45473;-58
2022/03/12 00:58:32;;;;;;;;;4.00;3.00;;;;;10.27;55.24;100825.97;5060835;28;45703;-58
2022/03/12 01:00:57;;;;;;;;;4.50;4.00;;;;;10.25;55.12;100824.22;5061190;28;45280;-58
2022/03/12 01:03:23;;;;;;;;;4.00;4.00;;;;;10.24;55.18;100826.88;5059936;28;45331;-58
2022/03/12 01:05:48;;;;;;;;;2.00;2.00;;;;;10.25;55.08;100828.56;5061434;28;45241;-58
2022/03/12 01:08:14;;;;;;;;;3.50;3.50;;;;;10.27;55.11;100833.84;5061048;28;45342;-58
2022/03/12 01:10:41;;;;;;;;;3.00;2.75;;;;;10.26;54.97;100835.56;5061085;28;45471;-58
2022/03/12 01:13:06;;;;;;;;;3.00;3.00;;;;;10.26;55.23;100840.81;5061016;28;45285;-58
2022/03/12 01:15:32;;;;;;;;;4.00;3.25;;;;;10.28;55.02;100846.09;5059795;28;45315;-58
2022/03/12 01:17:58;;;;;;;;;3.00;3.00;;;;;10.28;55.07;100860.06;5060841;28;45499;-58
2022/03/12 01:20:23;;;;;;;;;3.00;3.00;;;;;10.30;55.11;100858.31;5061126;28;45355;-58
2022/03/12 01:22:49;;;;;;;;;2.75;2.75;;;;;10.30;54.93;100857.44;5060872;28;45625;-58
2022/03/12 01:25:14;;;;;;;;;2.75;2.75;;;;;10.30;55.32;100857.44;5059562;28;45431;-58
2022/03/12 01:27:39;;;;;;;;;4.25;2.50;;;;;10.32;55.13;100861.78;5059339;28;46259;-58
2022/03/12 01:30:07;;;;;;;;;5.75;4.75;;;;;10.33;55.11;100857.41;5061084;28;45320;-57
2022/03/12 01:32:33;;;;;;;;;4.00;3.50;;;;;10.30;55.00;100849.56;5060877;28;45226;-58
2022/03/12 01:34:59;;;;;;;;;4.00;3.25;;;;;10.34;55.16;100853.88;5060927;28;45446;-58
2022/03/12 01:37:24;;;;;;;;;5.00;3.00;;;;;10.35;55.17;100859.13;5060522;28;45418;-58
2022/03/12 01:39:50;;;;;;;;;2.25;2.25;;;;;10.34;55.11;100854.75;5069506;28;45261;-58
2022/03/12 01:42:21;;;;;;;;;3.00;3.00;;;;;10.33;55.01;100858.28;5060695;28;45248;-58
2022/03/12 01:44:47;;;;;;;;;2.50;2.50;;;;;10.34;55.26;100859.13;5060604;28;45212;-58
2022/03/12 01:47:15;;;;;;;;;4.00;3.00;;;;;10.31;54.89;100860.03;5060353;28;46382;-58
2022/03/12 01:49:42;;;;;;;;;4.00;2.75;;;;;10.29;55.01;100864.44;5060693;28;45319;-58
2022/03/12 01:52:07;;;;;;;;;3.75;3.75;;;;;10.27;55.00;100866.22;5059332;28;45320;-58
2022/03/12 01:54:33;;;;;;;;;3.50;3.00;;;;;10.27;55.17;100866.22;5059280;28;45531;-58
2022/03/12 01:56:59;;;;;;;;;4.00;2.00;;;;;10.25;55.23;100860.09;5060244;28;45252;-58
2022/03/12 01:59:25;;;;;;;;;2.25;2.25;;;;;10.20;55.25;100860.16;5058839;28;45823;-58
2022/03/12 02:01:52;;;;;;;;;3.50;3.50;;;;;10.21;55.19;100866.28;5059401;28;45162;-58
2022/03/12 02:04:22;;;;;;;;;4.75;4.00;;;;;10.22;54.98;100863.63;5060223;28;45392;-58
2022/03/12 02:06:47;;;;;;;;;3.50;3.50;;;;;10.21;54.93;100869.78;5060060;28;45328;-58
2022/03/12 02:09:16;;;;;;;;;5.00;3.00;;;;;10.21;54.92;100875.03;5060044;28;45319;-57
2022/03/12 02:11:48;;;;;;;;;2.25;2.25;;;;;10.19;55.04;100883.81;5060254;28;45313;-58
2022/03/12 02:14:15;;;;;;;;;7.25;5.00;;;;;10.19;55.16;100889.94;5059941;28;45173;-58
2022/03/12 02:16:50;;;;;;;;;3.00;2.00;;;;;10.16;55.17;100891.72;5060015;28;45249;-58
2022/03/12 02:19:17;;;;;;;;;4.00;3.75;;;;;10.14;55.11;100886.50;5060240;28;45298;-58
2022/03/12 02:21:53;;;;;;;;;1.25;1.25;;;;;10.17;55.20;100886.44;5060047;28;45374;-58
2022/03/12 02:24:20;;;;;;;;;4.00;4.00;;;;;10.15;55.15;100885.63;5059928;28;45303;-58
2022/03/12 02:26:47;;;;;;;;;3.50;3.00;;;;;10.15;55.44;100884.72;5059693;28;45378;-58
2022/03/12 02:29:19;;;;;;;;;2.75;2.75;;;;;10.16;55.10;100891.72;5058514;28;45832;-58
2022/03/12 02:31:50;;;;;;;;;3.50;3.25;;;;;10.17;55.40;100893.47;5060050;28;45319;-58
2022/03/12 02:34:21;;;;;;;;;3.50;3.50;;;;;10.17;55.29;100882.97;5058528;28;45571;-58
2022/03/12 02:36:49;;;;;;;;;2.50;2.00;;;;;10.15;55.20;100874.22;5059934;28;46081;-58
2022/03/12 02:39:16;;;;;;;;;3.00;3.00;;;;;10.13;55.40;100876.88;5068669;28;45410;-58
2022/03/12 02:41:42;;;;;;;;;4.00;4.00;;;;;10.13;55.19;100871.63;5059934;28;45368;-58
2022/03/12 02:44:12;;;;;;;;;4.00;4.00;;;;;10.13;55.31;100870.75;5059391;28;45232;-58
2022/03/12 02:46:40;;;;;;;;;5.25;4.75;;;;;10.13;55.36;100865.50;5058420;28;46231;-58
2022/03/12 02:49:05;;;;;;;;;5.50;4.75;;;;;10.14;55.34;100867.22;5059744;28;45325;-58
2022/03/12 02:51:33;;;;;;;;;4.75;3.00;;;;;10.13;55.17;100868.13;5059791;28;45293;-58
2022/03/12 02:53:58;;;;;;;;;2.50;2.50;;;;;10.12;55.25;100864.63;5059680;28;45491;-58
2022/03/12 02:56:24;;;;;;;;;4.75;1.75;;;;;10.12;54.99;100877.75;5059541;28;45407;-58
2022/03/12 02:58:50;;;;;;;;;4.25;3.00;;;;;10.13;54.98;100876.88;5059294;28;45371;-58
2022/03/12 03:01:16;;;;;;;;;2.00;2.00;;;;;10.12;55.15;100879.50;5058572;28;45454;-58
2022/03/12 03:03:43;;;;;;;;;2.00;2.00;;;;;10.09;55.02;100876.03;5059314;28;45280;-58
2022/03/12 03:06:09;;;;;;;;;6.00;4.25;;;;;10.13;55.00;100883.88;5059550;28;45199;-58
2022/03/12 03:08:36;;;;;;;;;5.00;4.00;;;;;10.12;54.79;100882.13;5059361;28;45319;-58
2022/03/12 03:11:13;;;;;;;;;4.00;2.25;;;;;10.11;54.73;100883.03;5059370;28;45437;-58
2022/03/12 03:13:43;;;;;;;;;3.75;2.50;;;;;10.07;54.78;100880.44;5060766;28;45337;-58
2022/03/12 03:16:15;;;;;;;;;4.50;3.50;;;;;10.06;54.77;100883.94;5061585;28;45927;-58
2022/03/12 03:18:40;;;;;;;;;5.50;3.25;;;;;10.01;55.05;100876.97;5063080;28;45406;-58
2022/03/12 03:21:13;;;;;;;;;3.00;3.00;;;;;9.98;55.17;100888.38;5061737;28;45408;-58
2022/03/12 03:23:38;;;;;;;;;4.25;4.00;;;;;9.94;55.08;100870.94;5061449;28;45472;-58
2022/03/12 03:26:05;;;;;;;;;2.00;2.00;;;;;9.92;55.20;100872.69;5062542;28;45486;-58
2022/03/12 03:28:30;;;;;;;;;2.00;2.00;;;;;9.86;54.95;100875.38;5061394;28;45478;-58
2022/03/12 03:30:56;;;;;;;;;4.00;4.00;;;;;9.87;55.02;100885.00;5062839;28;45824;-58
2022/03/12 03:33:23;;;;;;;;;4.25;3.75;;;;;9.86;54.96;100883.25;5062843;28;45272;-58
2022/03/12 03:35:50;;;;;;;;;4.75;4.00;;;;;9.85;54.58;100886.75;5062517;28;45555;-58
2022/03/12 03:38:16;;;;;;;;;3.00;3.00;;;;;9.81;54.68;100880.69;5066248;28;45446;-58
2022/03/12 03:40:43;;;;;;;;;3.75;3.75;;;;;9.81;54.90;100893.81;5067687;28;45399;-58
2022/03/12 03:43:14;;;;;;;;;4.75;3.75;;;;;9.79;55.02;100886.81;5062262;28;45565;-58
2022/03/12 03:45:44;;;;;;;;;5.00;3.75;;;;;9.78;54.91;100880.69;5062229;28;46093;-58
2022/03/12 03:48:13;;;;;;;;;4.00;3.00;;;;;9.78;54.55;100887.72;5062407;28;45264;-58
2022/03/12 03:50:39;;;;;;;;;4.50;4.50;;;;;9.76;54.99;100900.84;5062428;28;45238;-62
2022/03/12 03:53:05;;;;;;;;;2.25;2.00;;;;;9.74;54.91;100889.47;5062433;28;45221;-63
2022/03/12 03:55:32;;;;;;;;;3.75;3.75;;;;;9.71;54.88;100889.50;5061953;28;45935;-59
2022/03/12 03:57:58;;;;;;;;;3.25;3.00;;;;;9.71;54.67;100895.63;5062186;28;45260;-58
2022/03/12 04:00:24;;;;;;;;;3.75;3.00;;;;;9.71;54.54;100906.13;5062376;28;45507;-58
2022/03/12 04:03:03;;;;;;;;;3.00;2.00;;;;;9.69;54.63;100902.63;5062063;28;45319;-58
2022/03/12 04:05:36;;;;;;;;;3.00;3.00;;;;;9.68;54.63;100895.63;5061979;28;45335;-59
2022/03/12 04:08:07;;;;;;;;;3.75;2.50;;;;;9.66;54.75;100892.19;5062151;28;45471;-58
2022/03/12 04:10:33;;;;;;;;;5.25;5.25;;;;;9.64;55.01;100893.94;5060749;28;45580;-58
2022/03/12 04:12:59;;;;;;;;;2.00;2.00;;;;;9.62;54.73;100889.56;5060247;28;45521;-58
2022/03/12 04:15:25;;;;;;;;;3.25;2.75;;;;;9.62;54.87;100897.44;5061984;28;45834;-60
2022/03/12 04:17:51;;;;;;;;;3.00;3.00;;;;;9.60;54.68;100911.44;5061975;28;45330;-59
2022/03/12 04:20:18;;;;;;;;;2.00;2.00;;;;;9.55;54.90;100901.88;5062028;28;45462;-59
2022/03/12 04:22:44;;;;;;;;;3.50;3.50;;;;;9.57;54.74;100902.72;5060580;28;45306;-58
2022/03/12 04:25:11;;;;;;;;;5.00;2.00;;;;;9.57;54.77;100905.34;5060726;28;46988;-59
2022/03/12 04:27:38;;;;;;;;;3.50;2.00;;;;;9.56;54.63;100904.50;5061563;28;45328;-59
2022/03/12 04:30:05;;;;;;;;;2.00;1.00;;;;;9.55;54.46;100902.75;5060679;28;45347;-59
2022/03/12 04:32:31;;;;;;;;;2.00;2.00;;;;;9.56;54.66;100903.63;5061523;28;45489;-58
2022/03/12 04:34:56;;;;;;;;;3.50;3.50;;;;;9.48;54.48;100897.56;5061506;28;47394;-58
2022/03/12 04:37:22;;;;;;;;;3.00;2.00;;;;;9.53;54.61;100901.00;5061436;28;45312;-58
2022/03/12 04:39:49;;;;;;;;;4.25;2.75;;;;;9.54;54.48;100916.72;5069162;28;45260;-59
2022/03/12 04:42:18;;;;;;;;;3.75;2.00;;;;;9.53;54.60;100911.50;5061352;28;45422;-58
2022/03/12 04:44:43;;;;;;;;;2.25;2.25;;;;;9.52;54.43;100904.50;5060066;28;47448;-59
2022/03/12 04:47:12;;;;;;;;;2.00;2.00;;;;;9.50;54.77;100919.41;5061501;28;45288;-58
2022/03/12 04:49:37;;;;;;;;;5.00;3.00;;;;;9.48;54.78;100927.25;5061759;28;45398;-58
2022/03/12 04:52:02;;;;;;;;;4.25;2.50;;;;;9.43;54.67;100922.06;5061351;28;45252;-58
2022/03/12 04:54:32;;;;;;;;;5.75;5.00;;;;;9.39;54.62;100924.72;5060168;28;46935;-59
2022/03/12 04:56:57;;;;;;;;;4.00;4.00;;;;;9.35;54.78;100929.09;5061322;28;45456;-58
2022/03/12 04:59:23;;;;;;;;;4.00;2.25;;;;;9.30;54.87;100930.88;5043202;28;45277;-59
2022/03/12 05:01:48;;;;;;;;;2.50;2.50;;;;;9.29;54.73;100929.13;5061242;28;45501;-58
2022/03/12 05:04:14;;;;;;;;;3.75;3.75;;;;;9.24;55.03;100930.91;5059903;28;45380;-58
2022/03/12 05:06:39;;;;;;;;;3.00;3.00;;;;;9.20;54.80;100923.97;5061103;28;45265;-59
2022/03/12 05:09:05;;;;;;;;;3.75;3.75;;;;;9.20;54.98;100924.81;5061278;28;45387;-58
2022/03/12 05:11:34;;;;;;;;;4.00;3.00;;;;;9.20;54.84;100923.97;5060972;28;45303;-58
2022/03/12 05:13:59;;;;;;;;;5.75;2.75;;;;;9.16;54.64;100925.72;5060697;28;46258;-58
2022/03/12 05:16:28;;;;;;;;;1.00;1.00;;;;;9.16;55.03;100940.59;5059722;28;45273;-58
2022/03/12 05:18:56;;;;;;;;;3.25;3.00;;;;;9.16;54.73;100944.06;5061299;28;45337;-58
2022/03/12 05:21:21;;;;;;;;;4.50;2.25;;;;;9.15;54.83;100952.81;5060793;28;45536;-58
2022/03/12 05:23:46;;;;;;;;;2.00;2.00;;;;;9.15;54.94;100946.72;5059424;28;46049;-59
2022/03/12 05:26:12;;;;;;;;;3.75;3.00;;;;;9.15;54.80;100949.34;5060699;28;45333;-59
2022/03/12 05:28:37;;;;;;;;;2.75;2.75;;;;;9.12;54.76;100952.84;5060960;28;45331;-59
2022/03/12 05:31:08;;;;;;;;;2.00;2.00;;;;;9.08;54.53;100952.00;5060859;28;45465;-59
2022/03/12 05:33:35;;;;;;;;;3.00;3.00;;;;;9.09;54.91;100952.84;5060995;28;47102;-59
2022/03/12 05:36:02;;;;;;;;;3.25;2.00;;;;;9.11;54.91;100959.81;5060510;28;45273;-59
2022/03/12 05:38:31;;;;;;;;;3.25;3.00;;;;;9.10;54.69;100949.34;5066267;28;45370;-58
2022/03/12 05:40:57;;;;;;;;;2.50;2.00;;;;;9.08;54.79;100954.59;5063241;28;45474;-59
2022/03/12 05:43:25;;;;;;;;;3.00;3.00;;;;;9.04;54.82;100954.63;5060187;28;45184;-59
2022/03/12 05:45:51;;;;;;;;;0.00;0.00;;;;;9.02;54.64;100946.75;5060502;28;45497;-58
2022/03/12 05:48:17;;;;;;;;;1.25;1.00;;;;;9.07;54.91;100960.72;5060628;28;45454;-59
2022/03/12 05:50:45;;;;;;;;;4.50;3.00;;;;;9.05;54.81;100967.72;5060426;28;45333;-59
2022/03/12 05:53:11;;;;;;;;;4.00;3.00;;;;;9.07;54.90;100978.22;5060504;28;45246;-59
2022/03/12 05:55:40;;;;;;;;;3.50;3.50;;;;;9.07;55.00;100972.97;5060228;28;45173;-59
2022/03/12 05:58:10;;;;;;;;;5.00;3.50;;;;;9.06;54.88;100984.34;5060368;28;45371;-59
2022/03/12 06:00:36;;;;;;;;;3.00;3.00;;;;;9.05;55.03;100988.69;5060135;28;45201;-59
2022/03/12 06:03:02;;;;;;;;;2.75;2.75;;;;;9.07;54.75;100989.56;5058921;28;47124;-59
2022/03/12 06:05:28;;;;;;;;;2.00;2.00;;;;;9.06;54.63;100984.34;5060152;28;45170;-58
2022/03/12 06:07:54;;;;;;;;;3.50;3.00;;;;;9.05;55.16;100980.81;5059084;28;45351;-58
2022/03/12 06:10:23;;;;;;;;;5.50;4.50;;;;;9.05;54.77;100977.34;5059915;28;45292;-59
2022/03/12 06:12:51;;;;;;;;;7.00;5.50;;;;;9.07;55.02;100986.09;5042172;28;45360;-59
2022/03/12 06:15:18;;;;;;;;;4.75;4.00;;;;;9.08;54.92;100993.03;5060111;28;45193;-59
2022/03/12 06:17:49;;;;;;;;;3.75;3.75;;;;;9.08;54.74;100987.78;5058869;28;45320;-58
2022/03/12 06:20:16;;;;;;;;;3.00;3.00;;;;;9.08;54.81;100988.69;5059940;28;45414;-59
2022/03/12 06:22:43;;;;;;;;;4.00;4.00;;;;;9.08;55.17;100991.31;5059872;28;45328;-59
2022/03/12 06:25:11;;;;;;;;;6.75;3.25;;;;;9.09;54.80;101000.03;5059918;28;45282;-59
2022/03/12 06:27:38;;;;;;;;;3.50;3.50;;;;;9.09;54.89;100994.78;5059757;28;45399;-58
2022/03/12 06:30:09;;;;;;;;;4.50;3.00;;;;;9.13;54.99;101006.13;5059898;28;45398;-59
2022/03/12 06:32:36;;;;;;;;;5.50;3.00;;;;;9.13;54.82;101000.91;5059603;28;46481;-59
2022/03/12 06:35:02;;;;;;;;;3.00;3.00;;;;;9.13;54.63;101008.75;5059859;28;45429;-59
2022/03/12 06:37:28;;;;;;;;;4.00;3.75;;;;;9.15;54.89;101012.25;5059935;28;45713;-58
2022/03/12 06:39:55;;;;;;;;;4.50;3.25;;;;;9.16;54.73;101021.88;5068059;28;45541;-59
2022/03/12 06:42:22;;;;;;;;;3.00;3.00;;;;;9.16;54.69;101027.97;5059417;28;45800;-58
2022/03/12 06:44:48;;;;;;;;;6.00;5.00;;;;;9.17;54.72;101034.09;5058494;28;45846;-59
2022/03/12 06:47:14;;;;;;;;;1.50;1.50;;;;;9.14;54.92;101037.59;5059774;28;45398;-59
2022/03/12 06:49:40;;;;;;;;;4.00;3.00;;;;;9.13;54.95;101041.09;5063116;28;45351;-59
2022/03/12 06:52:06;;;;;;;;;3.00;3.00;;;;;9.14;54.96;101042.84;5063304;28;45307;-59
2022/03/12 06:54:33;;;;;;;;;5.25;3.75;;;;;9.13;54.94;101041.09;5062114;28;45893;-59
2022/03/12 06:56:58;;;;;;;;;5.75;2.50;;;;;9.13;55.02;101038.47;5063276;28;45213;-58
2022/03/12 06:59:24;;;;;;;;;3.75;3.75;;;;;9.14;55.03;101047.22;5063069;28;45632;-59
2022/03/12 07:01:50;;;;;;;;;5.50;5.00;;;;;9.15;54.90;101048.97;5063134;28;45909;-59
2022/03/12 07:04:16;;;;;;;;;4.25;4.25;;;;;9.15;55.05;101043.72;5063183;28;45195;-59
2022/03/12 07:06:41;;;;;;;;;3.25;3.25;;;;;9.18;55.31;101056.81;5063155;28;45224;-59
2022/03/12 07:09:06;;;;;;;;;5.00;5.00;;;;;9.16;55.01;101058.59;5061737;28;45595;-58
2022/03/12 07:11:32;;;;;;;;;4.00;4.00;;;;;9.21;55.06;101060.31;5061584;28;46999;-59
2022/03/12 07:14:01;;;;;;;;;4.00;4.00;;;;;9.22;54.75;101066.41;5062915;28;45243;-59
2022/03/12 07:16:26;;;;;;;;;3.00;3.00;;;;;9.24;54.94;101073.41;5063100;28;45445;-59
2022/03/12 07:18:51;;;;;;;;;4.00;4.00;;;;;9.25;54.95;101069.91;5061646;28;45393;-59
2022/03/12 07:21:17;;;;;;;;;5.50;5.50;;;;;9.30;55.00;101072.50;5062637;28;46297;-59
2022/03/12 07:23:42;;;;;;;;;5.50;4.25;;;;;9.32;55.00;101062.00;5062907;28;45319;-59
2022/03/12 07:26:08;;;;;;;;;5.25;5.25;;;;;9.32;55.04;101057.66;5062651;28;45573;-59
2022/03/12 07:28:34;;;;;;;;;4.00;4.00;;;;;9.33;55.12;101054.13;5062684;28;45506;-58
2022/03/12 07:31:00;;;;;;;;;4.25;4.00;;;;;9.39;55.04;101068.97;5062707;28;45313;-58
2022/03/12 07:33:26;;;;;;;;;4.00;4.00;;;;;9.39;55.03;101067.22;5063042;28;45230;-58
2022/03/12 07:35:51;;;;;;;;;4.75;4.75;;;;;9.43;55.18;101070.69;5062807;28;45295;-58
2022/03/12 07:38:17;;;;;;;;;4.00;4.00;;;;;9.47;55.21;101076.81;5066629;28;45426;-59
2022/03/12 07:40:43;;;;;;;;;4.25;4.25;;;;;9.48;55.33;101068.06;5067150;28;46208;-58
2022/03/12 07:43:08;;;;;;;;;5.00;4.50;;;;;9.50;55.25;101071.56;5062490;28;45308;-58
2022/03/12 07:45:33;;;;;;;;;2.75;2.75;;;;;9.55;55.28;101072.41;5062729;28;45430;-58
2022/03/12 07:47:59;;;;;;;;;4.00;4.00;;;;;9.56;55.56;101071.53;5062869;28;45303;-59
2022/03/12 07:50:26;;;;;;;;;4.00;3.50;;;;;9.60;55.43;101065.41;5062277;28;45496;-58
2022/03/12 07:52:52;;;;;;;;;4.00;2.50;;;;;9.62;55.31;101068.88;5062411;28;45334;-58
2022/03/12 07:55:17;;;;;;;;;1.25;1.25;;;;;9.65;55.35;101075.84;5062195;28;45512;-58
2022/03/12 07:57:43;;;;;;;;;4.25;4.25;;;;;9.69;55.38;101082.84;5062364;28;45319;-58
2022/03/12 08:00:10;;;;;;;;;3.75;3.75;;;;;9.73;55.32;101089.81;5060783;28;46065;-58
2022/03/12 08:02:36;;;;;;;;;4.00;4.00;;;;;9.74;55.34;101095.06;5062448;28;45275;-58
2022/03/12 08:05:02;;;;;;;;;5.00;4.50;;;;;9.78;55.59;101110.81;5062156;28;45224;-58
2022/03/12 08:07:28;;;;;;;;;2.00;1.25;;;;;9.81;55.54;101108.16;5062205;28;45248;-58
2022/03/12 08:09:56;;;;;;;;;6.00;5.00;;;;;9.84;55.57;101108.16;5061545;28;46533;-58
2022/03/12 08:12:28;;;;;;;;;4.25;4.25;;;;;9.87;55.44;101126.50;5061935;28;45363;-58
2022/03/12 08:14:54;;;;;;;;;3.00;3.00;;;;;9.89;55.34;101122.13;5062056;28;45317;-58
2022/03/12 08:17:19;;;;;;;;;5.25;5.00;;;;;9.92;55.91;101136.09;5061965;28;45438;-58
2022/03/12 08:19:45;;;;;;;;;2.00;2.00;;;;;9.95;55.66;101142.19;5061763;28;45470;-57
2022/03/12 08:22:11;;;;;;;;;4.00;3.25;;;;;9.95;55.33;101126.44;5061930;28;45263;-60
2022/03/12 08:24:36;;;;;;;;;4.00;4.00;;;;;9.97;55.35;101127.31;5062036;28;45926;-57
2022/03/12 08:27:02;;;;;;;;;3.25;3.25;;;;;10.03;55.66;101128.16;5061437;28;45490;-59
2022/03/12 08:29:28;;;;;;;;;4.00;4.00;;;;;10.06;55.71;101136.03;5061490;28;46276;-58
2022/03/12 08:31:53;;;;;;;;;5.25;4.50;;;;;10.11;55.32;101140.38;5061826;28;45329;-57
2022/03/12 08:34:18;;;;;;;;;6.00;4.00;;;;;10.12;55.46;101145.59;5061918;28;45265;-58
2022/03/12 08:36:45;;;;;;;;;4.50;4.50;;;;;10.17;55.34;101145.59;5061971;28;45224;-58
2022/03/12 08:39:13;;;;;;;;;3.75;3.75;;;;;10.17;55.55;101142.97;5068700;28;46262;-58
2022/03/12 08:41:39;;;;;;;;;4.25;4.25;;;;;10.21;55.42;101147.31;5061536;28;45241;-58
2022/03/12 08:44:06;;;;;;;;;6.00;4.50;;;;;10.23;55.34;101149.03;5061235;28;45339;-58
2022/03/12 08:46:31;;;;;;;;;3.25;3.25;;;;;10.26;55.36;101148.16;5061499;28;45674;-58
2022/03/12 08:48:57;;;;;;;;;3.00;3.00;;;;;10.29;55.47;101140.25;5061446;28;46679;-58
2022/03/12 08:51:22;;;;;;;;;3.00;3.00;;;;;10.29;55.60;101140.25;5061518;28;45385;-58
2022/03/12 08:53:47;;;;;;;;;4.25;4.25;;;;;10.34;55.52;101146.34;5061646;28;45319;-59
2022/03/12 08:56:13;;;;;;;;;3.25;3.25;;;;;10.35;55.62;101148.09;5061226;28;45443;-59
2022/03/12 08:58:39;;;;;;;;;3.00;3.00;;;;;10.38;55.46;101145.47;5059782;28;47891;-59
2022/03/12 09:01:06;;;;;;;;;5.50;4.25;;;;;10.43;55.34;101139.31;5060232;28;45293;-59
2022/03/12 09:03:33;;;;;;;;;3.50;3.25;;;;;10.45;55.41;101135.78;5060033;28;45398;-59
2022/03/12 09:05:58;;;;;;;;;3.75;3.75;;;;;10.52;55.31;101142.75;5060025;28;45450;-59
2022/03/12 09:08:24;;;;;;;;;5.00;3.50;;;;;10.56;55.27;101143.59;5061078;28;46242;-59
2022/03/12 09:10:49;;;;;;;;;6.00;3.75;;;;;10.61;55.43;101140.94;5060613;28;45284;-59
2022/03/12 09:13:17;;;;;;;;;4.50;4.00;;;;;10.64;55.30;101136.53;5061147;28;45271;-59
2022/03/12 09:15:43;;;;;;;;;5.75;5.00;;;;;10.68;55.52;101130.34;5061337;28;45577;-59
2022/03/12 09:18:09;;;;;;;;;5.50;4.50;;;;;10.73;55.29;101143.47;5061089;28;45300;-59
2022/03/12 09:20:38;;;;;;;;;6.50;5.50;;;;;10.76;55.38;101150.47;5061150;28;45417;-59
2022/03/12 09:23:04;;;;;;;;;4.00;4.00;;;;;10.79;55.09;101147.78;5061020;28;45228;-59
2022/03/12 09:25:29;;;;;;;;;6.00;6.00;;;;;10.83;55.33;101147.75;5059562;28;45372;-59
2022/03/12 09:27:54;;;;;;;;;7.00;6.75;;;;;10.87;55.27;101140.72;5060707;28;46144;-58
2022/03/12 09:30:20;;;;;;;;;6.75;6.50;;;;;10.91;55.34;101138.94;5059638;28;45261;-59
2022/03/12 09:32:45;;;;;;;;;6.75;6.00;;;;;10.95;55.18;101127.50;5060991;28;45514;-58
2022/03/12 09:35:11;;;;;;;;;8.00;7.00;;;;;10.97;55.21;101128.34;5060824;28;45397;-59
2022/03/12 09:37:37;;;;;;;;;5.25;5.25;;;;;11.01;55.31;101133.56;5060653;28;46281;-59
2022/03/12 09:40:04;;;;;;;;;4.50;4.50;;;;;11.04;55.25;101136.19;5068816;28;45419;-58
2022/03/12 09:42:30;;;;;;;;;6.25;6.25;;;;;11.07;55.30;101124.75;5059241;28;45431;-59
2022/03/12 09:44:57;;;;;;;;;7.50;7.50;;;;;11.11;55.23;101125.59;5060403;28;45438;-58
2022/03/12 09:47:22;;;;;;;;;9.25;6.00;;;;;11.15;55.45;101124.66;5060265;28;46534;-58
2022/03/12 09:49:47;;;;;;;;;6.00;5.00;;;;;11.19;55.26;101126.38;5060614;28;45220;-59
2022/03/12 09:52:13;;;;;;;;;10.50;7.75;;;;;11.25;55.25;101128.09;5059260;28;45655;-58
2022/03/12 09:54:39;;;;;;;;;6.25;5.75;;;;;11.27;55.17;101121.03;5060696;28;45431;-59
2022/03/12 09:57:04;;;;;;;;;7.75;7.25;;;;;11.32;55.36;101114.84;5060113;28;46730;-59
2022/03/12 09:59:30;;;;;;;;;5.00;5.00;;;;;11.38;55.38;101116.50;5060437;28;45272;-59
2022/03/12 10:01:56;;;;;;;;;7.25;6.00;;;;;11.44;55.28;101116.44;5060445;28;45374;-59
2022/03/12 10:04:22;;;;;;;;;7.00;5.75;;;;;11.51;55.32;101122.53;5059062;28;45407;-59
2022/03/12 10:06:47;;;;;;;;;5.75;5.75;;;;;11.54;55.31;101122.47;5060189;28;46421;-58
2022/03/12 10:09:13;;;;;;;;;4.25;4.00;;;;;11.59;55.34;101122.44;5058731;28;45323;-59
2022/03/12 10:11:41;;;;;;;;;8.00;6.00;;;;;11.65;55.39;101117.94;5060200;28;45264;-59
2022/03/12 10:14:08;;;;;;;;;7.75;7.75;;;;;11.72;55.49;101121.38;5059903;28;45238;-59
2022/03/12 10:16:33;;;;;;;;;9.00;6.00;;;;;11.78;55.39;101128.31;5058590;28;48155;-59
2022/03/12 10:18:59;;;;;;;;;9.00;7.50;;;;;11.85;55.41;101128.22;5060244;28;45497;-59
2022/03/12 10:21:25;;;;;;;;;8.25;7.00;;;;;11.92;55.37;101131.63;5058677;28;45394;-59
2022/03/12 10:23:50;;;;;;;;;6.00;5.50;;;;;11.98;55.33;101128.94;5057320;28;45534;-58
2022/03/12 10:26:16;;;;;;;;;6.50;6.50;;;;;12.05;55.44;101121.84;5059652;28;45529;-59
2022/03/12 10:28:41;;;;;;;;;6.00;5.25;;;;;12.09;55.25;101118.28;5059686;28;45308;-59
2022/03/12 10:31:08;;;;;;;;;10.75;8.00;;;;;12.14;55.37;101119.06;5060007;28;45399;-59
2022/03/12 10:33:35;;;;;;;;;6.00;6.00;;;;;12.21;55.51;101122.47;5059746;28;45588;-59
2022/03/12 10:36:15;;;;;;;;;6.00;5.25;;;;;12.25;55.51;101116.28;5059486;28;46232;-58
2022/03/12 10:38:43;;;;;;;;;6.00;5.00;;;;;12.27;55.33;101119.75;5066920;28;45286;-58
2022/03/12 10:41:10;;;;;;;;;5.50;5.50;;;;;12.31;55.23;101118.84;5060962;28;45461;-58
2022/03/12 10:43:49;;;;;;;;;5.50;5.50;;;;;12.33;55.55;101116.16;5059444;28;45523;-60
2022/03/12 10:46:21;;;;;;;;;6.75;5.75;;;;;12.37;55.02;101106.47;5059608;28;45627;-58
2022/03/12 10:48:55;;;;;;;;;10.75;7.75;;;;;12.40;55.44;101109.03;5059419;28;45363;-58
2022/03/12 10:51:21;;;;;;;;;8.75;6.75;;;;;12.42;55.24;101094.94;5058506;28;44705;-58
2022/03/12 10:53:48;;;;;;;;;10.50;8.00;;;;;12.46;54.74;101108.94;5059454;28;45472;-58
2022/03/12 10:56:14;;;;;;;;;5.00;5.00;;;;;12.45;55.21;101107.19;5059447;28;46050;-58
2022/03/12 10:58:39;;;;;;;;;6.25;4.50;;;;;12.47;55.28;101110.69;5059118;28;45297;-58
2022/03/12 11:01:05;;;;;;;;;5.00;5.00;;;;;12.45;55.17;101113.34;5059807;28;45356;-59
2022/03/12 11:03:33;;;;;;;;;4.50;4.50;;;;;12.46;55.26;101109.78;5059311;28;45692;-58
2022/03/12 11:06:00;;;;;;;;;6.00;5.00;;;;;12.49;55.33;101101.84;5059315;28;46339;-58
2022/03/12 11:08:28;;;;;;;;;6.75;6.00;;;;;12.52;54.98;101100.94;5058999;28;45272;-58
2022/03/12 11:11:00;;;;;;;;;11.25;10.50;;;;;12.54;54.99;101096.50;5041287;28;45248;-58
2022/03/12 11:13:52;;;;;;;;;7.00;5.25;;;;;12.54;54.95;101104.41;5058998;28;45620;-57
2022/03/12 11:16:22;;;;;;;;;6.75;6.75;;;;;12.55;54.99;101090.31;5055812;28;46095;-58
2022/03/12 11:18:51;;;;;;;;;8.00;7.50;;;;;12.55;55.06;101090.31;5059112;28;45228;-58
2022/03/12 11:21:37;;;;;;;;;6.50;4.00;;;;;12.55;54.82;101086.81;5059367;28;46134;-59
2022/03/12 11:24:05;;;;;;;;;6.75;5.25;;;;;12.53;54.89;101094.75;5057949;28;45348;-59
2022/03/12 11:26:31;;;;;;;;;5.50;4.00;;;;;12.51;55.06;101086.00;5059055;28;45630;-59
2022/03/12 11:28:58;;;;;;;;;8.00;6.75;;;;;12.51;54.87;101092.16;5057579;28;45338;-60